createdAt,value
2022-11-06T00:00:42.828Z,7.20
2022-11-06T00:04:44.854Z,6.40
2022-11-06T00:08:46.842Z,6.22
2022-11-06T00:12:49.104Z,6.00
2022-11-06T00:16:51.119Z,6.55
2022-11-06T00:20:53.140Z,6.82
2022-11-06T00:24:55.167Z,5.95
2022-11-06T00:28:57.676Z,8.57
2022-11-06T00:32:59.710Z,11.60
2022-11-06T00:37:01.815Z,12.07
2022-11-06T00:41:06.440Z,12.52
2022-11-06T00:45:09.251Z,13.00
2022-11-06T00:49:11.255Z,14.30
2022-11-06T00:53:13.249Z,12.85
2022-11-06T00:57:15.290Z,12.43
2022-11-06T01:01:21.958Z,13.10
2022-11-06T01:05:24.173Z,11.27
2022-11-06T01:09:28.313Z,10.75
2022-11-06T01:13:30.301Z,10.40
2022-11-06T01:17:32.282Z,9.75
2022-11-06T01:21:37.483Z,10.05
2022-11-06T01:25:39.503Z,9.32
2022-11-06T01:29:41.664Z,9.80
2022-11-06T01:33:44.258Z,9.95
2022-11-06T01:37:46.264Z,9.25
2022-11-06T01:41:51.077Z,9.38
2022-11-06T01:45:54.898Z,9.70
2022-11-06T01:50:05.700Z,10.40
2022-11-06T01:54:08.817Z,9.75
2022-11-06T01:58:15.202Z,10.70
2022-11-06T02:02:17.988Z,9.05
2022-11-06T02:06:20.150Z,9.48
2022-11-06T02:10:22.257Z,10.48
2022-11-06T02:14:36.536Z,9.00
2022-11-06T02:18:47.705Z,9.00
2022-11-06T02:23:21.816Z,8.18
2022-11-06T02:27:25.011Z,7.85
2022-11-06T02:31:30.110Z,8.45
2022-11-06T02:35:40.643Z,8.77
2022-11-06T02:39:46.317Z,8.07
2022-11-06T02:43:54.031Z,7.63
2022-11-06T02:47:59.014Z,7.32
2022-11-06T02:52:06.833Z,7.85
2022-11-06T02:56:17.245Z,7.38
2022-11-06T03:00:19.259Z,7.35
2022-11-06T03:04:30.345Z,7.28
2022-11-06T03:08:50.326Z,8.00
2022-11-06T03:13:01.400Z,7.57
2022-11-06T03:17:13.822Z,7.32
2022-11-06T03:21:30.319Z,8.52
2022-11-06T03:25:51.864Z,7.97
2022-11-06T03:30:05.138Z,8.50
2022-11-06T03:34:11.024Z,8.07
2022-11-06T03:38:19.703Z,7.78
2022-11-06T03:42:27.595Z,7.70
2022-11-06T03:46:31.739Z,7.22
2022-11-06T03:50:54.218Z,7.15
2022-11-06T03:55:23.871Z,7.40
2022-11-06T03:59:34.175Z,8.30
2022-11-06T04:03:44.075Z,7.95
2022-11-06T04:08:09.271Z,8.25
2022-11-06T04:12:35.579Z,8.57
2022-11-06T04:16:46.580Z,8.15
2022-11-06T04:21:21.496Z,8.35
2022-11-06T04:25:42.242Z,8.73
2022-11-06T04:29:51.455Z,8.00
2022-11-06T04:34:08.060Z,7.50
2022-11-06T04:38:37.772Z,7.57
2022-11-06T04:42:56.363Z,7.30
2022-11-06T04:47:04.857Z,7.70
2022-11-06T04:51:10.513Z,7.75
2022-11-06T04:55:12.556Z,7.43
2022-11-06T04:59:17.519Z,7.68
2022-11-06T05:03:19.774Z,8.52
2022-11-06T05:07:21.822Z,8.27
2022-11-06T05:11:23.857Z,9.35
2022-11-06T05:15:25.961Z,8.55
2022-11-06T05:19:28.008Z,9.43
2022-11-06T05:23:30.031Z,9.35
2022-11-06T05:27:32.074Z,8.45
2022-11-06T05:31:34.289Z,8.00
2022-11-06T05:35:36.433Z,7.82
2022-11-06T05:39:41.883Z,8.98
2022-11-06T05:43:44.222Z,8.07
2022-11-06T05:47:46.224Z,9.02
2022-11-06T05:51:48.340Z,9.32
2022-11-06T05:55:50.343Z,8.82
2022-11-06T05:59:52.342Z,8.80
2022-11-06T06:03:54.399Z,9.70
2022-11-06T06:07:56.434Z,9.68
2022-11-06T06:11:58.451Z,11.40
2022-11-06T06:16:01.783Z,11.68
2022-11-06T06:20:04.329Z,12.63
2022-11-06T06:24:06.850Z,12.60
2022-11-06T06:28:08.907Z,15.18
2022-11-06T06:32:10.902Z,14.52
2022-11-06T06:36:12.892Z,13.73
2022-11-06T06:40:14.897Z,14.10
2022-11-06T06:44:16.902Z,12.88
2022-11-06T06:48:18.883Z,11.70
2022-11-06T06:52:20.916Z,12.00
2022-11-06T06:56:23.348Z,11.27
2022-11-06T07:00:25.660Z,11.55
2022-11-06T07:04:27.739Z,12.75
2022-11-06T07:08:30.131Z,12.80
2022-11-06T07:12:32.148Z,12.73
2022-11-06T07:16:34.214Z,11.20
2022-11-06T07:20:36.363Z,12.82
2022-11-06T07:24:38.371Z,10.20
2022-11-06T07:28:40.420Z,9.75
2022-11-06T07:32:42.656Z,9.75
2022-11-06T07:36:44.703Z,10.30
2022-11-06T07:40:46.741Z,10.30
2022-11-06T07:44:49.019Z,10.65
2022-11-06T07:48:51.056Z,11.40
2022-11-06T07:52:53.484Z,10.95
2022-11-06T07:56:55.510Z,11.18
2022-11-06T08:00:58.690Z,11.85
2022-11-06T08:05:00.816Z,11.77
2022-11-06T08:09:08.622Z,12.48
2022-11-06T08:13:11.824Z,11.68
2022-11-06T08:17:13.868Z,12.13
2022-11-06T08:21:15.867Z,12.25
2022-11-06T08:25:18.039Z,11.57
2022-11-06T08:29:20.063Z,11.00
2022-11-06T08:33:23.240Z,11.10
2022-11-06T08:37:25.263Z,10.75
2022-11-06T08:41:27.263Z,10.90
2022-11-06T08:45:29.861Z,10.55
2022-11-06T08:49:31.913Z,10.05
2022-11-06T08:53:34.501Z,9.77
2022-11-06T08:57:36.609Z,10.90
2022-11-06T09:01:38.729Z,10.02
2022-11-06T09:05:42.591Z,9.75
2022-11-06T09:09:44.598Z,10.57
2022-11-06T09:13:46.969Z,9.85
2022-11-06T09:17:51.124Z,9.18
2022-11-06T09:21:54.871Z,9.10
2022-11-06T09:25:58.192Z,8.95
2022-11-06T09:30:00.207Z,8.00
2022-11-06T09:34:03.111Z,9.23
2022-11-06T09:38:08.398Z,8.82
2022-11-06T09:42:13.281Z,10.18
2022-11-06T09:46:24.667Z,8.77
2022-11-06T09:50:30.483Z,8.27
2022-11-06T09:54:39.492Z,7.30
2022-11-06T09:58:44.101Z,7.30
2022-11-06T10:03:22.071Z,7.32
2022-11-06T10:07:34.732Z,7.30
2022-11-06T10:11:54.442Z,6.65
2022-11-06T10:16:12.681Z,7.20
2022-11-06T10:20:31.994Z,6.75
2022-11-06T10:24:55.286Z,7.25
2022-11-06T10:29:16.455Z,7.35
2022-11-06T10:33:38.308Z,6.38
2022-11-06T10:37:48.715Z,7.13
2022-11-06T10:41:57.437Z,6.10
2022-11-06T10:46:36.234Z,5.68
2022-11-06T10:50:49.449Z,5.80
2022-11-06T10:55:21.270Z,5.10
2022-11-06T10:59:23.398Z,5.25
2022-11-06T11:03:32.783Z,5.38
2022-11-06T11:07:35.044Z,4.80
2022-11-06T11:11:37.132Z,4.15
2022-11-06T11:15:44.827Z,3.83
2022-11-06T11:19:46.849Z,4.90
2022-11-06T11:24:01.205Z,3.45
2022-11-06T11:28:05.063Z,3.72
2022-11-06T11:32:07.730Z,4.00
2022-11-06T11:36:10.187Z,3.95
2022-11-06T11:40:42.293Z,3.80
2022-11-06T11:44:44.414Z,4.13
2022-11-06T11:48:57.770Z,4.50
2022-11-06T11:52:59.726Z,4.22
2022-11-06T11:57:08.196Z,4.30
2022-11-06T12:01:10.222Z,4.60
2022-11-06T12:05:21.109Z,4.47
2022-11-06T12:09:25.466Z,4.20
2022-11-06T12:13:27.474Z,4.22
2022-11-06T12:17:31.198Z,4.35
2022-11-06T12:21:36.192Z,5.18
2022-11-06T12:25:42.200Z,4.60
2022-11-06T12:29:55.773Z,4.20
2022-11-06T12:34:06.871Z,4.15
2022-11-06T12:38:43.901Z,4.40
2022-11-06T12:43:25.690Z,4.78
2022-11-06T12:47:58.467Z,5.00
2022-11-06T12:52:17.966Z,4.35
2022-11-06T12:56:36.445Z,4.20
2022-11-06T13:00:57.757Z,4.38
2022-11-06T13:05:43.716Z,4.50
2022-11-06T13:09:55.027Z,3.83
2022-11-06T13:14:09.311Z,3.80
2022-11-06T13:18:24.764Z,5.38
2022-11-06T13:22:51.825Z,4.60
2022-11-06T13:27:09.362Z,4.10
2022-11-06T13:31:16.589Z,3.88
2022-11-06T13:35:21.355Z,4.05
2022-11-06T13:39:45.990Z,6.40
2022-11-06T13:43:58.576Z,3.35
2022-11-06T13:48:06.550Z,2.65
2022-11-06T13:52:28.724Z,2.67
2022-11-06T13:56:52.655Z,2.70
2022-11-06T14:01:11.914Z,3.00
2022-11-06T14:05:48.145Z,3.00
2022-11-06T14:09:50.245Z,2.70
2022-11-06T14:14:07.924Z,2.65
2022-11-06T14:22:28.380Z,2.38
2022-11-06T14:26:39.785Z,1.90
2022-11-06T14:31:11.157Z,1.58
2022-11-06T14:35:41.179Z,1.80
2022-11-06T14:39:52.395Z,1.90
2022-11-06T14:43:56.903Z,1.98
2022-11-06T14:47:58.900Z,2.55
2022-11-06T14:52:05.738Z,2.50
2022-11-06T14:56:10.631Z,2.25
2022-11-06T15:00:32.568Z,2.42
2022-11-06T15:04:35.172Z,2.60
2022-11-06T15:08:46.408Z,2.67
2022-11-06T15:13:03.782Z,2.97
2022-11-06T15:17:14.469Z,2.83
2022-11-06T15:21:24.119Z,2.70
2022-11-06T15:25:27.988Z,3.15
2022-11-06T15:29:33.998Z,2.80
2022-11-06T15:33:44.514Z,4.40
2022-11-06T15:37:51.318Z,3.95
2022-11-06T15:41:53.357Z,3.13
2022-11-06T15:46:25.026Z,3.35
2022-11-06T15:50:31.959Z,3.63
2022-11-06T15:54:38.267Z,3.20
2022-11-06T15:58:40.395Z,3.00
2022-11-06T16:02:51.315Z,3.80
2022-11-06T16:06:54.995Z,3.70
2022-11-06T16:10:59.018Z,3.58
2022-11-06T16:15:01.070Z,3.50
2022-11-06T16:19:06.373Z,3.30
2022-11-06T16:23:13.465Z,3.10
2022-11-06T16:31:22.458Z,6.10
2022-11-06T16:35:36.274Z,3.83
2022-11-06T16:39:49.232Z,3.58
2022-11-06T16:44:26.047Z,4.10
2022-11-06T16:48:37.067Z,3.60
2022-11-06T16:52:40.258Z,3.72
2022-11-06T16:56:42.374Z,4.10
2022-11-06T17:00:44.526Z,3.90
2022-11-06T17:04:47.098Z,3.03
2022-11-06T17:09:07.840Z,3.45
2022-11-06T17:13:14.730Z,4.03
2022-11-06T17:17:27.936Z,4.82
2022-11-06T17:21:29.931Z,4.40
2022-11-06T17:25:32.045Z,3.30
2022-11-06T17:29:36.395Z,5.07
2022-11-06T17:33:38.934Z,5.40
2022-11-06T17:37:40.965Z,3.97
2022-11-06T17:41:43.130Z,3.17
2022-11-06T17:45:47.946Z,2.97
2022-11-06T17:49:50.048Z,3.10
2022-11-06T17:53:52.061Z,3.95
2022-11-06T17:57:54.444Z,3.25
2022-11-06T18:01:57.518Z,4.22
2022-11-06T18:05:59.780Z,3.95
2022-11-06T18:10:01.928Z,3.70
2022-11-06T18:14:04.141Z,4.00
2022-11-06T18:18:06.218Z,4.18
2022-11-06T18:22:08.404Z,5.90
2022-11-06T18:26:10.847Z,5.50
2022-11-06T18:30:13.367Z,5.82
2022-11-06T18:34:20.561Z,5.72
2022-11-06T18:38:22.911Z,5.13
2022-11-06T18:42:24.892Z,5.50
2022-11-06T18:46:27.971Z,5.53
2022-11-06T18:50:29.999Z,6.03
2022-11-06T18:54:32.021Z,5.95
2022-11-06T18:58:34.767Z,6.22
2022-11-06T19:02:36.865Z,6.63
2022-11-06T19:06:40.043Z,6.22
2022-11-06T19:10:42.115Z,5.60
2022-11-06T19:14:44.206Z,5.68
2022-11-06T19:18:46.995Z,5.05
2022-11-06T19:22:53.497Z,5.57
2022-11-06T19:26:55.628Z,5.53
2022-11-06T19:30:58.453Z,5.45
2022-11-06T19:35:00.476Z,6.15
2022-11-06T19:39:03.497Z,5.60
2022-11-06T19:43:06.972Z,5.30
2022-11-06T19:47:08.962Z,6.03
2022-11-06T19:51:15.462Z,5.75
2022-11-06T19:55:24.650Z,6.30
2022-11-06T19:59:29.906Z,6.43
2022-11-06T20:03:31.886Z,6.20
2022-11-06T20:07:33.887Z,6.13
2022-11-06T20:11:36.032Z,5.90
2022-11-06T20:15:38.096Z,6.20
2022-11-06T20:19:40.184Z,6.00
2022-11-06T20:23:42.219Z,5.60
2022-11-06T20:27:44.286Z,5.03
2022-11-06T20:31:46.316Z,4.97
2022-11-06T20:35:48.563Z,4.80
2022-11-06T20:39:52.007Z,5.22
2022-11-06T20:43:54.171Z,4.60
2022-11-06T20:47:56.180Z,4.45
2022-11-06T20:52:13.665Z,4.13
2022-11-06T20:56:18.916Z,4.05
2022-11-06T21:00:21.335Z,3.90
2022-11-06T21:04:23.353Z,3.83
2022-11-06T21:08:26.143Z,3.65
2022-11-06T21:12:28.294Z,6.03
2022-11-06T21:16:33.768Z,3.80
2022-11-06T21:20:38.029Z,3.75
2022-11-06T21:24:40.048Z,3.65
2022-11-06T21:28:45.876Z,3.25
2022-11-06T21:32:47.882Z,3.20
2022-11-06T21:36:49.950Z,3.60
2022-11-06T21:40:51.977Z,3.50
2022-11-06T21:44:54.050Z,3.58
2022-11-06T21:48:56.880Z,3.20
2022-11-06T21:53:18.044Z,3.30
2022-11-06T21:57:20.029Z,3.00
2022-11-06T22:01:23.413Z,3.40
2022-11-06T22:05:25.473Z,3.15
2022-11-06T22:09:27.450Z,3.42
2022-11-06T22:13:29.481Z,3.40
2022-11-06T22:17:31.681Z,2.83
2022-11-06T22:21:35.043Z,3.15
2022-11-06T22:25:39.016Z,3.20
2022-11-06T22:29:41.021Z,3.15
2022-11-06T22:33:43.011Z,3.00
2022-11-06T22:37:45.030Z,3.25
2022-11-06T22:41:47.052Z,3.45
2022-11-06T22:45:49.317Z,3.80
2022-11-06T22:49:51.884Z,3.10
2022-11-06T22:53:54.176Z,2.97
2022-11-06T22:57:56.215Z,3.30
2022-11-06T23:01:58.270Z,3.50
2022-11-06T23:06:04.202Z,3.25
2022-11-06T23:10:07.651Z,2.72
2022-11-06T23:14:09.764Z,2.90
2022-11-06T23:18:11.875Z,3.00
2022-11-06T23:22:32.464Z,2.92
2022-11-06T23:26:34.946Z,2.88
2022-11-06T23:30:36.910Z,2.83
2022-11-06T23:34:38.853Z,2.60
2022-11-06T23:38:41.990Z,2.70
2022-11-06T23:42:44.039Z,2.70
2022-11-06T23:46:46.030Z,2.70
2022-11-06T23:50:47.996Z,2.55
2022-11-06T23:54:50.000Z,2.40
2022-11-06T23:58:51.985Z,2.88
